Terminal Aerodrome Forecast
Issued by NWS

Home | Current Version | Previous Version | Text Only | Print | Product List | Glossary On
Versions: 1 2 3 4 5 6 7 8 9 10 11 12 13 14 15 16 17 18 19 20 21
000
FTUS43 KGRR 260801 AAB
TAFAZO
TAF AMD
KAZO 260801Z 2608/2706 10006KT P6SM -RA OVC007
     FM261000 12006KT 5SM -RA BR OVC005
     FM261400 16008KT 2SM -RA BR OVC005
     FM262200 22008KT 2SM -RA BR VCTS OVC015CB=

USA.gov is the U.S. government's official web portal to all federal, state and local government web resources and services.